Aérodrome :
LOGIN :

S'inscrire | Disclaimer

   EN    FR    IT 

 










Légende :    VFR   VFR Marginal   IFR   IFR Intensif   IFR Très Intensif
Visi : 
Plafond : 
>= 8 km
>= 3000ft
5 à 8 km
1000 à 3000 ft
1500m à 5 km
500 à 1000 ft
800 à 1500m
200 à 500 ft
< 800m
< 200 ft
Symboles :   Orages  Brouillard  Fortes neiges  Fortes précipitations  Vent > 20 kt
SIGMETs :   Divers  Orages  Givrage  Turbulence  Onde Orograph.  Cendres Volcan.






- Altitude de l'aérodrome : 102 ft
- Code IATA : EXT


EGTE - Exeter

DERNIER METAR :
  • 190750Z 06008KT 9999 FEW020 16/11 Q1020

METARs EXPIRÉS :
  • 190720Z 05010KT 9999 FEW020 15/11 Q1020
  • 190650Z 04011KT 010V070 9999 FEW020 14/11 Q1019
  • 190620Z 05010KT 9999 FEW020 13/11 Q1019
  • 190550Z 01004KT 340V040 9999 FEW015 11/11 Q1019
  • 190520Z VRB01KT 9999 FEW015 09/09 Q1019
  • 190450Z VRB01KT 9999 FEW040 08/07 Q1019
  • 190420Z VRB02KT 9999 FEW040 08/07 Q1019

TAF TAF EGTE
Valide du 19 à 06h jusqu'au 19 à 15h UTC


190459Z 1906/1915 03006KT 9999 SCT020
BECMG 1912/1915 18010KT



MET'MAP, la Météo Aéronautique d'un coup d'oeil ! - Copyright ORBIFLY Décembre 2007 - Disclaimer

ORBIFLY MET'MAP TEAM :

Programmation & Développement : Alexandra Zaïnal
Sur une idée originale de : Baudouin d'Aumeries
Soutien technique & logistique : Manuel Goepfert
Assistance : Marc-Olivier Méhu




SOURCES & CREDITS :

   NOAA